Time;durP1;ratioP1;P1;durP2;ratioP2;P2;SDS_P1;SDS_P2;PMS_P1;PMS_P2;Temp;Humidity;BMP_temperature;BMP_pressure;BME280_temperature;BME280_humidity;BME280_pressure;Samples;Min_cycle;Max_cycle;Signal;HPM_P1;HPM_P2
2023/11/03 00:01:33;;;;;;;6.40;2.22;;;13.20;99.90;;;;;;5009324;28;20082;-76
2023/11/03 00:04:02;;;;;;;5.57;2.38;;;13.30;99.90;;;;;;5007780;28;20516;-77
2023/11/03 00:06:32;;;;;;;5.90;2.58;;;13.20;99.90;;;;;;4994625;28;20119;-76
2023/11/03 00:09:00;;;;;;;5.40;2.42;;;13.30;99.90;;;;;;5012762;28;20047;-78
2023/11/03 00:11:29;;;;;;;4.15;2.15;;;13.20;99.90;;;;;;4998927;28;20037;-76
2023/11/03 00:13:57;;;;;;;5.95;2.38;;;13.20;99.90;;;;;;5004517;28;20037;-81
2023/11/03 00:16:25;;;;;;;5.03;2.53;;;13.20;99.90;;;;;;4999245;28;21274;-75
2023/11/03 00:18:57;;;;;;;4.85;2.47;;;13.20;99.90;;;;;;5014214;28;20402;-76
2023/11/03 00:21:27;;;;;;;6.40;2.58;;;13.20;99.90;;;;;;5017259;28;20524;-75
2023/11/03 00:23:57;;;;;;;5.38;2.28;;;13.30;99.90;;;;;;4999645;28;20049;-75
2023/11/03 00:26:26;;;;;;;4.40;2.00;;;13.20;99.90;;;;;;5004210;28;20061;-74
2023/11/03 00:28:55;;;;;;;6.90;2.47;;;13.20;99.90;;;;;;4997817;28;20049;-74
2023/11/03 00:31:23;;;;;;;6.72;2.40;;;13.20;99.90;;;;;;4971708;28;20049;-74
2023/11/03 00:33:51;;;;;;;4.13;2.10;;;13.20;99.90;;;;;;4997905;28;20762;-76
2023/11/03 00:36:20;;;;;;;5.03;1.80;;;13.20;99.90;;;;;;4996122;28;20139;-75
2023/11/03 00:38:48;;;;;;;7.15;2.33;;;13.20;99.90;;;;;;4980107;28;20056;-76
2023/11/03 00:41:20;;;;;;;7.30;2.10;;;13.20;99.90;;;;;;4972677;28;20056;-75
2023/11/03 00:43:49;;;;;;;5.78;2.00;;;13.20;99.90;;;;;;4988830;28;20053;-75
2023/11/03 00:46:18;;;;;;;4.22;1.70;;;13.20;99.90;;;;;;4971698;28;20056;-76
2023/11/03 00:48:46;;;;;;;4.40;2.08;;;13.20;99.90;;;;;;4997548;28;20389;-74
2023/11/03 00:51:15;;;;;;;3.33;1.35;;;13.20;99.90;;;;;;4979767;28;20051;-75
2023/11/03 00:53:45;;;;;;;5.82;1.83;;;13.20;99.90;;;;;;4979153;28;20049;-76
2023/11/03 00:56:13;;;;;;;4.45;1.92;;;13.20;99.90;;;;;;4979691;28;20057;-74
2023/11/03 00:58:43;;;;;;;4.15;1.85;;;13.20;99.90;;;;;;4977861;28;20540;-75
2023/11/03 01:01:13;;;;;;;3.58;1.70;;;13.20;99.90;;;;;;4980608;28;22250;-75
2023/11/03 01:03:41;;;;;;;4.95;1.88;;;13.20;99.90;;;;;;5016455;28;20037;-75
2023/11/03 01:06:10;;;;;;;5.78;2.28;;;13.20;99.90;;;;;;4981582;28;20600;-75
2023/11/03 01:08:39;;;;;;;3.88;1.80;;;13.20;99.90;;;;;;5014046;28;20139;-74
2023/11/03 01:11:09;;;;;;;6.05;2.35;;;13.20;99.90;;;;;;4979552;28;20060;-74
2023/11/03 01:13:37;;;;;;;3.92;1.80;;;13.20;99.90;;;;;;4997905;28;22202;-74
2023/11/03 01:16:08;;;;;;;4.20;1.40;;;13.20;99.90;;;;;;4986008;28;20053;-74
2023/11/03 01:18:37;;;;;;;3.00;1.45;;;13.20;99.90;;;;;;4987234;28;20057;-76
2023/11/03 01:21:12;;;;;;;5.75;1.63;;;13.20;99.90;;;;;;5000423;28;20090;-75
2023/11/03 01:23:42;;;;;;;3.92;1.70;;;13.20;99.90;;;;;;4975591;28;20049;-74
2023/11/03 01:26:11;;;;;;;6.28;1.85;;;13.20;99.90;;;;;;5002166;28;20049;-75
2023/11/03 01:28:40;;;;;;;4.72;1.40;;;13.20;99.90;;;;;;4975989;28;20052;-76
2023/11/03 01:31:11;;;;;;;4.68;1.92;;;13.20;99.90;;;;;;4974357;28;20045;-75
2023/11/03 01:33:41;;;;;;;4.77;2.03;;;13.20;99.90;;;;;;4992477;28;20052;-76
2023/11/03 01:36:10;;;;;;;5.57;2.35;;;13.20;99.90;;;;;;5002769;28;22425;-76
2023/11/03 01:38:40;;;;;;;4.35;1.90;;;13.20;99.90;;;;;;4997728;28;20042;-74
2023/11/03 01:41:09;;;;;;;3.55;1.80;;;13.20;99.90;;;;;;4998812;28;20433;-75
2023/11/03 01:43:39;;;;;;;4.00;1.75;;;13.20;99.90;;;;;;5014775;28;20036;-74
2023/11/03 01:46:09;;;;;;;8.10;2.20;;;13.20;99.90;;;;;;4989749;28;20151;-75
2023/11/03 01:48:37;;;;;;;3.38;1.77;;;13.10;99.90;;;;;;4989149;28;20374;-75
2023/11/03 01:51:06;;;;;;;5.35;1.80;;;13.10;99.90;;;;;;4997717;28;20048;-74
2023/11/03 01:53:35;;;;;;;3.30;1.80;;;13.10;99.90;;;;;;5000391;28;20076;-76
2023/11/03 01:56:04;;;;;;;6.15;2.13;;;13.10;99.90;;;;;;5001654;28;20049;-75
2023/11/03 01:58:32;;;;;;;5.18;1.65;;;13.10;99.90;;;;;;4991006;28;20151;-76
2023/11/03 02:01:01;;;;;;;4.28;1.92;;;13.10;99.90;;;;;;4995220;28;20077;-74
2023/11/03 02:03:31;;;;;;;5.25;1.90;;;13.10;99.90;;;;;;5013385;28;20060;-74
2023/11/03 02:06:00;;;;;;;5.07;2.00;;;13.00;99.90;;;;;;4999365;28;20300;-75
2023/11/03 02:08:28;;;;;;;5.45;2.25;;;13.00;99.90;;;;;;4981433;28;20057;-75
2023/11/03 02:10:57;;;;;;;6.22;1.90;;;13.00;99.90;;;;;;4986263;28;20055;-74
2023/11/03 02:13:29;;;;;;;2.85;1.65;;;13.00;99.90;;;;;;5004813;28;20041;-75
2023/11/03 02:15:58;;;;;;;5.80;2.00;;;13.00;99.90;;;;;;4999871;28;20430;-75
2023/11/03 02:18:26;;;;;;;3.33;2.03;;;13.00;99.90;;;;;;4985712;28;20053;-75
2023/11/03 02:20:56;;;;;;;4.93;1.88;;;13.00;99.90;;;;;;5001244;28;20830;-75
2023/11/03 02:23:26;;;;;;;4.20;1.52;;;13.00;99.90;;;;;;4999146;28;20045;-74
2023/11/03 02:25:55;;;;;;;3.97;1.40;;;12.90;99.90;;;;;;4998221;28;20058;-74
2023/11/03 02:28:23;;;;;;;4.30;1.60;;;12.90;99.90;;;;;;4983678;28;22165;-75
2023/11/03 02:30:51;;;;;;;4.30;1.70;;;12.90;99.90;;;;;;4973001;28;20488;-75
2023/11/03 02:33:20;;;;;;;3.53;1.23;;;12.90;99.90;;;;;;4988781;28;20126;-75
2023/11/03 02:35:49;;;;;;;4.72;2.00;;;13.00;99.90;;;;;;4990921;28;20071;-75
2023/11/03 02:38:17;;;;;;;5.22;1.30;;;13.00;99.90;;;;;;4998284;28;20091;-76
2023/11/03 02:40:54;;;;;;;4.78;1.30;;;13.00;99.90;;;;;;5002210;28;20049;-76
2023/11/03 02:43:22;;;;;;;5.28;1.75;;;13.00;99.90;;;;;;4993617;28;20166;-76
2023/11/03 02:45:51;;;;;;;3.88;1.50;;;13.00;99.90;;;;;;4980224;28;22228;-76
2023/11/03 02:48:19;;;;;;;4.88;1.80;;;13.00;99.90;;;;;;4982401;28;20053;-77
2023/11/03 02:50:48;;;;;;;3.42;1.55;;;13.10;99.90;;;;;;5007928;28;20041;-75
2023/11/03 02:53:18;;;;;;;4.47;1.58;;;13.10;99.90;;;;;;5019562;28;20506;-78
2023/11/03 02:55:48;;;;;;;3.40;1.42;;;13.10;99.90;;;;;;4990617;28;20135;-77
2023/11/03 02:58:17;;;;;;;2.90;1.20;;;13.10;99.90;;;;;;5001947;28;20705;-76
2023/11/03 03:00:45;;;;;;;7.07;1.42;;;13.00;99.90;;;;;;4990739;28;20060;-77
2023/11/03 03:03:14;;;;;;;3.45;1.35;;;13.10;99.90;;;;;;4991948;28;20053;-75
2023/11/03 03:05:42;;;;;;;10.48;1.40;;;13.10;99.90;;;;;;4991663;28;20084;-76
2023/11/03 03:08:11;;;;;;;2.35;1.33;;;13.00;99.90;;;;;;5001528;28;20060;-77
2023/11/03 03:10:39;;;;;;;3.97;1.58;;;13.00;99.90;;;;;;4981645;28;20048;-79
2023/11/03 03:13:10;;;;;;;3.38;1.33;;;13.00;99.90;;;;;;4974604;28;20517;-77
2023/11/03 03:15:38;;;;;;;4.15;1.27;;;13.00;99.90;;;;;;4999873;28;20050;-76
2023/11/03 03:18:07;;;;;;;3.50;1.20;;;13.00;99.90;;;;;;5013854;28;20417;-76
2023/11/03 03:20:35;;;;;;;3.88;1.60;;;13.00;99.90;;;;;;4984665;28;20185;-76
2023/11/03 03:23:04;;;;;;;4.82;1.40;;;13.00;99.90;;;;;;5001739;28;20041;-77
2023/11/03 03:25:32;;;;;;;2.35;0.85;;;13.00;99.90;;;;;;5000897;28;20049;-76
2023/11/03 03:28:00;;;;;;;3.35;1.15;;;13.00;99.90;;;;;;4974460;28;20536;-76
2023/11/03 03:30:30;;;;;;;4.43;1.52;;;13.00;99.90;;;;;;4998551;28;20090;-77
2023/11/03 03:32:59;;;;;;;4.07;1.40;;;13.00;99.90;;;;;;4980314;28;20056;-77
2023/11/03 03:35:27;;;;;;;4.10;1.20;;;13.00;99.90;;;;;;4975492;28;20056;-78
2023/11/03 03:37:55;;;;;;;2.95;1.60;;;13.00;99.90;;;;;;5015552;28;20060;-78
2023/11/03 03:40:24;;;;;;;6.63;1.38;;;13.00;99.90;;;;;;4984733;28;20103;-76
2023/11/03 03:42:52;;;;;;;2.83;1.42;;;13.00;99.90;;;;;;4975341;28;20060;-75
2023/11/03 03:45:21;;;;;;;3.58;1.50;;;13.00;99.90;;;;;;4975058;28;20068;-79
2023/11/03 03:47:51;;;;;;;3.72;1.48;;;13.00;99.90;;;;;;4973881;28;20049;-80
2023/11/03 03:50:19;;;;;;;3.85;1.40;;;13.00;99.90;;;;;;5019881;28;20053;-79
2023/11/03 03:52:48;;;;;;;5.10;1.23;;;13.00;99.90;;;;;;5001752;28;20729;-80
2023/11/03 03:55:16;;;;;;;3.00;1.10;;;13.10;99.90;;;;;;5006849;28;20415;-80
2023/11/03 03:57:45;;;;;;;3.83;1.30;;;13.00;99.90;;;;;;5023572;28;22574;-79
2023/11/03 04:00:15;;;;;;;3.85;1.40;;;13.00;99.90;;;;;;5000760;28;20535;-79
2023/11/03 04:02:43;;;;;;;3.20;1.40;;;13.00;99.90;;;;;;5016830;28;20261;-82
2023/11/03 04:05:13;;;;;;;3.15;1.10;;;13.00;99.90;;;;;;5016887;28;20040;-79
2023/11/03 04:07:42;;;;;;;4.80;1.23;;;13.10;99.90;;;;;;4972842;28;20075;-78
2023/11/03 04:10:10;;;;;;;4.55;1.40;;;13.10;99.90;;;;;;5002244;28;20421;-80
2023/11/03 04:12:39;;;;;;;3.90;1.45;;;13.10;99.90;;;;;;5001437;28;20053;-82
2023/11/03 04:15:08;;;;;;;3.05;1.23;;;13.00;99.90;;;;;;5000492;28;20126;-78
2023/11/03 04:17:36;;;;;;;5.38;1.15;;;13.00;99.90;;;;;;4998867;28;22227;-81
2023/11/03 04:20:06;;;;;;;3.83;0.95;;;13.00;99.90;;;;;;5005552;28;20056;-80
2023/11/03 04:22:36;;;;;;;4.35;1.13;;;13.00;99.90;;;;;;5001272;28;20399;-80
2023/11/03 04:25:05;;;;;;;4.10;1.30;;;13.00;99.90;;;;;;5020427;28;20047;-81
2023/11/03 04:27:33;;;;;;;5.72;1.30;;;13.00;99.90;;;;;;4999132;28;20049;-79
2023/11/03 04:30:02;;;;;;;2.17;1.20;;;13.00;99.90;;;;;;5010886;28;20094;-78
2023/11/03 04:32:30;;;;;;;2.97;0.90;;;13.00;99.90;;;;;;5002069;28;20051;-81
2023/11/03 04:34:59;;;;;;;3.85;1.17;;;13.00;99.90;;;;;;4999182;28;20040;-79
2023/11/03 04:37:28;;;;;;;2.63;1.08;;;13.00;99.90;;;;;;4981513;28;22415;-76
2023/11/03 04:39:57;;;;;;;5.25;1.13;;;12.90;99.90;;;;;;4983113;28;20049;-79
2023/11/03 04:42:26;;;;;;;3.38;1.30;;;12.90;99.90;;;;;;4998989;28;20056;-80
2023/11/03 04:44:54;;;;;;;4.10;1.48;;;12.90;99.90;;;;;;4982931;28;20036;-75
2023/11/03 04:47:22;;;;;;;3.03;1.17;;;12.90;99.90;;;;;;4998157;28;20045;-79
2023/11/03 04:49:50;;;;;;;4.55;1.20;;;12.90;99.90;;;;;;5018971;28;20836;-79
2023/11/03 04:52:20;;;;;;;4.65;1.42;;;12.90;99.90;;;;;;4982821;28;20163;-80
2023/11/03 04:54:48;;;;;;;4.68;1.33;;;12.90;99.90;;;;;;4978773;28;20284;-79
2023/11/03 04:57:20;;;;;;;6.88;2.15;;;12.90;99.90;;;;;;4983686;28;20802;-79
2023/11/03 04:59:49;;;;;;;4.20;1.35;;;12.80;99.90;;;;;;5001405;28;20044;-82
2023/11/03 05:02:18;;;;;;;6.72;1.90;;;12.90;99.90;;;;;;4970616;28;20052;-78
2023/11/03 05:04:46;;;;;;;4.53;1.85;;;12.90;99.90;;;;;;5000538;28;20048;-79
2023/11/03 05:07:15;;;;;;;3.47;1.65;;;12.90;99.90;;;;;;5000099;28;20056;-81
2023/11/03 05:09:43;;;;;;;4.65;1.30;;;12.90;99.90;;;;;;5000255;28;20056;-78
2023/11/03 05:12:12;;;;;;;5.80;1.98;;;13.00;99.90;;;;;;4982054;28;20057;-78
2023/11/03 05:14:42;;;;;;;6.55;1.60;;;13.00;99.90;;;;;;5000920;28;20045;-78
2023/11/03 05:17:10;;;;;;;4.15;1.85;;;13.00;99.90;;;;;;4978946;28;20573;-80
2023/11/03 05:19:39;;;;;;;5.82;1.13;;;13.00;99.90;;;;;;4983266;28;20118;-80
2023/11/03 05:22:09;;;;;;;3.10;1.00;;;13.00;99.90;;;;;;5000929;28;20080;-79
2023/11/03 05:24:37;;;;;;;3.13;0.90;;;13.00;99.90;;;;;;4987771;28;20052;-81
2023/11/03 05:27:08;;;;;;;3.97;1.20;;;13.10;99.90;;;;;;4988692;28;20479;-80
2023/11/03 05:29:37;;;;;;;5.47;1.55;;;13.10;99.90;;;;;;5020483;28;20739;-79
2023/11/03 05:32:09;;;;;;;5.78;2.92;;;13.10;99.90;;;;;;4996212;28;20682;-82
2023/11/03 05:34:37;;;;;;;8.35;2.72;;;13.20;99.90;;;;;;4999686;28;20083;-79
2023/11/03 05:37:06;;;;;;;3.55;1.65;;;13.20;99.90;;;;;;5013004;28;20041;-77
2023/11/03 05:39:34;;;;;;;2.92;1.42;;;13.20;99.90;;;;;;4980504;28;20061;-78
2023/11/03 05:42:04;;;;;;;5.57;2.05;;;13.20;99.90;;;;;;4998960;28;20053;-79
2023/11/03 05:44:33;;;;;;;5.70;1.85;;;13.20;99.90;;;;;;5001742;28;20628;-79
2023/11/03 05:47:02;;;;;;;3.25;1.65;;;13.20;99.90;;;;;;4996983;28;20052;-78
2023/11/03 05:49:32;;;;;;;5.22;2.30;;;13.20;99.90;;;;;;5000585;28;20068;-81
2023/11/03 05:52:01;;;;;;;5.88;3.60;;;13.20;99.90;;;;;;5000238;28;20037;-79
2023/11/03 05:54:29;;;;;;;7.45;3.35;;;13.30;99.90;;;;;;5000053;28;20142;-77
2023/11/03 05:56:58;;;;;;;6.32;3.50;;;13.30;99.90;;;;;;4979585;28;20049;-79
2023/11/03 05:59:26;;;;;;;4.20;2.10;;;13.30;99.90;;;;;;5003058;28;20778;-79
2023/11/03 06:01:54;;;;;;;6.38;1.75;;;13.30;99.90;;;;;;5016973;28;20580;-78
2023/11/03 06:04:23;;;;;;;2.70;1.63;;;13.30;99.90;;;;;;4982273;28;20049;-77
2023/11/03 06:06:53;;;;;;;5.05;1.13;;;13.30;99.90;;;;;;4999093;28;20040;-73
2023/11/03 06:09:22;;;;;;;3.58;1.10;;;13.30;99.90;;;;;;5018714;28;20075;-74
2023/11/03 06:11:51;;;;;;;9.57;1.88;;;13.40;99.90;;;;;;5002147;28;20057;-75
2023/11/03 06:14:19;;;;;;;3.05;1.48;;;13.40;99.90;;;;;;5003506;28;20053;-75
2023/11/03 06:16:48;;;;;;;3.38;1.88;;;13.40;99.90;;;;;;5012272;28;20049;-74
2023/11/03 06:19:16;;;;;;;4.00;0.98;;;13.40;99.90;;;;;;4988883;28;20059;-73
2023/11/03 06:21:44;;;;;;;3.80;1.10;;;13.40;99.90;;;;;;5017551;28;20052;-74
2023/11/03 06:24:15;;;;;;;3.63;1.33;;;13.40;99.90;;;;;;5014812;28;20067;-73
2023/11/03 06:26:44;;;;;;;5.55;1.63;;;13.50;99.90;;;;;;5014757;28;20049;-74
2023/11/03 06:29:12;;;;;;;3.40;1.35;;;13.50;99.90;;;;;;5015412;28;20060;-74
2023/11/03 06:31:41;;;;;;;5.88;1.85;;;13.50;99.90;;;;;;4990426;28;20045;-74
2023/11/03 06:34:09;;;;;;;3.13;1.40;;;13.50;99.90;;;;;;5029349;28;21041;-74
2023/11/03 06:36:38;;;;;;;4.07;1.70;;;13.50;99.90;;;;;;5014250;28;22560;-74
2023/11/03 06:39:18;;;;;;;3.38;1.40;;;13.50;99.90;;;;;;5016162;28;20190;-74
2023/11/03 06:41:47;;;;;;;7.45;3.40;;;13.60;99.90;;;;;;5015327;28;22625;-73
2023/11/03 06:44:15;;;;;;;14.95;6.00;;;13.60;99.90;;;;;;4988362;28;20049;-74
2023/11/03 06:46:44;;;;;;;10.05;4.32;;;13.60;99.90;;;;;;5015081;28;20516;-73
2023/11/03 06:49:12;;;;;;;9.90;4.47;;;13.60;99.90;;;;;;5011812;28;20106;-75
2023/11/03 06:51:43;;;;;;;5.57;2.30;;;13.60;99.90;;;;;;4998668;28;20052;-74
2023/11/03 06:54:12;;;;;;;5.90;2.42;;;13.70;99.90;;;;;;5019912;28;20960;-75
2023/11/03 06:56:42;;;;;;;4.18;1.60;;;13.70;99.90;;;;;;5014759;28;20036;-74
2023/11/03 06:59:10;;;;;;;6.35;2.50;;;13.70;99.90;;;;;;4983771;28;20096;-77
2023/11/03 07:01:39;;;;;;;3.75;1.40;;;13.80;99.90;;;;;;4982031;28;20091;-74
2023/11/03 07:04:09;;;;;;;2.58;1.15;;;13.80;99.90;;;;;;5000728;28;22354;-74
2023/11/03 07:06:37;;;;;;;3.60;1.35;;;13.80;99.90;;;;;;5002097;28;20041;-73
2023/11/03 07:09:06;;;;;;;3.60;1.20;;;13.70;99.90;;;;;;4996290;28;20068;-74
2023/11/03 07:11:34;;;;;;;3.35;0.98;;;13.70;99.90;;;;;;5012787;28;20052;-73
2023/11/03 07:14:05;;;;;;;4.45;1.40;;;13.60;99.90;;;;;;4999823;28;20052;-73
2023/11/03 07:16:34;;;;;;;4.32;1.45;;;13.60;99.90;;;;;;4983172;28;20071;-79
2023/11/03 07:19:02;;;;;;;5.30;1.20;;;13.60;99.90;;;;;;5001011;28;20064;-76
2023/11/03 07:21:31;;;;;;;4.40;1.23;;;13.50;99.90;;;;;;4984009;28;22433;-78
2023/11/03 07:23:59;;;;;;;3.80;1.20;;;13.50;99.90;;;;;;5000999;28;20445;-78
2023/11/03 07:26:31;;;;;;;2.83;1.77;;;13.50;99.90;;;;;;5020058;28;20139;-79
2023/11/03 07:28:59;;;;;;;4.47;0.93;;;13.50;99.90;;;;;;5000864;28;20059;-78
2023/11/03 07:31:31;;;;;;;3.25;1.67;;;13.50;99.90;;;;;;4999381;28;20600;-76
2023/11/03 07:34:01;;;;;;;4.60;1.27;;;13.50;99.90;;;;;;5015020;28;20052;-77
2023/11/03 07:36:31;;;;;;;5.88;2.13;;;13.50;99.90;;;;;;4995195;28;20515;-80
2023/11/03 07:38:59;;;;;;;5.63;1.75;;;13.50;99.90;;;;;;4990329;28;20056;-77
2023/11/03 07:41:27;;;;;;;4.82;1.90;;;13.40;99.90;;;;;;4999057;28;20576;-77
2023/11/03 07:43:56;;;;;;;5.55;1.90;;;13.40;99.90;;;;;;4997422;28;20949;-77
2023/11/03 07:46:24;;;;;;;4.53;1.52;;;13.40;99.90;;;;;;4996177;28;20859;-78
2023/11/03 07:48:54;;;;;;;7.88;2.17;;;13.40;99.90;;;;;;4969477;28;20601;-77
2023/11/03 07:51:23;;;;;;;4.30;1.73;;;13.40;99.90;;;;;;4973023;28;20248;-77
2023/11/03 07:53:51;;;;;;;2.78;1.00;;;13.40;99.90;;;;;;5001504;28;20705;-78
2023/11/03 07:56:23;;;;;;;9.88;3.33;;;13.50;99.90;;;;;;4974402;28;20096;-78
2023/11/03 07:59:03;;;;;;;9.27;3.15;;;13.50;99.90;;;;;;4999542;28;20071;-77
2023/11/03 08:01:32;;;;;;;5.90;2.83;;;13.50;99.90;;;;;;4975476;28;20053;-78
2023/11/03 08:04:02;;;;;;;5.72;2.40;;;13.50;99.90;;;;;;4983105;28;20144;-79
2023/11/03 08:06:30;;;;;;;9.52;2.42;;;13.50;99.90;;;;;;4999270;28;20056;-77
2023/11/03 08:08:59;;;;;;;4.55;1.58;;;13.50;99.90;;;;;;4989900;28;20049;-78
2023/11/03 08:11:27;;;;;;;3.28;1.63;;;13.50;99.90;;;;;;5001063;28;20179;-78
2023/11/03 08:13:56;;;;;;;6.28;1.50;;;13.50;99.90;;;;;;4999834;28;20134;-77
2023/11/03 08:16:24;;;;;;;4.25;1.52;;;13.50;99.90;;;;;;4973808;28;20516;-77
2023/11/03 08:18:57;;;;;;;5.38;2.05;;;13.40;99.90;;;;;;4997321;28;20052;-79
2023/11/03 08:21:27;;;;;;;5.43;1.75;;;13.40;99.90;;;;;;4982294;28;20506;-81
2023/11/03 08:23:56;;;;;;;6.13;1.90;;;13.40;99.90;;;;;;4994313;28;20071;-77
2023/11/03 08:26:24;;;;;;;6.88;2.50;;;13.40;99.90;;;;;;4996657;28;20056;-80
2023/11/03 08:28:52;;;;;;;5.22;2.58;;;13.40;99.90;;;;;;4986394;28;20524;-76
2023/11/03 08:31:21;;;;;;;3.78;2.13;;;13.40;99.90;;;;;;4982683;28;20420;-77
2023/11/03 08:33:49;;;;;;;4.05;1.50;;;13.40;99.90;;;;;;5000204;28;20107;-75
2023/11/03 08:36:18;;;;;;;6.22;1.52;;;13.40;99.90;;;;;;4996013;28;20044;-76
2023/11/03 08:38:51;;;;;;;3.80;1.52;;;13.40;99.90;;;;;;4997805;28;20661;-77
2023/11/03 08:41:20;;;;;;;4.18;1.40;;;13.40;99.90;;;;;;5014642;28;22614;-78
2023/11/03 08:43:51;;;;;;;1.73;1.02;;;13.30;99.90;;;;;;4986130;28;20876;-76
2023/11/03 08:46:21;;;;;;;3.35;1.00;;;13.40;99.90;;;;;;4979503;28;20870;-76
2023/11/03 08:48:54;;;;;;;5.57;1.90;;;13.30;99.90;;;;;;4980225;28;20541;-77
2023/11/03 08:51:26;;;;;;;5.07;1.73;;;13.30;99.90;;;;;;5032551;28;20051;-77
2023/11/03 08:53:59;;;;;;;5.63;1.95;;;13.30;99.90;;;;;;4996770;28;20049;-76
2023/11/03 08:56:29;;;;;;;6.85;3.03;;;13.30;99.90;;;;;;5009753;28;20415;-76
2023/11/03 08:59:00;;;;;;;4.03;2.20;;;13.30;99.90;;;;;;5008173;28;20809;-75
2023/11/03 09:01:30;;;;;;;3.33;1.02;;;13.30;99.90;;;;;;5008988;28;20053;-80
2023/11/03 09:04:01;;;;;;;3.40;1.67;;;13.30;99.90;;;;;;4996451;28;20170;-77
2023/11/03 09:06:33;;;;;;;6.13;2.30;;;13.20;99.90;;;;;;4997350;28;20426;-77
2023/11/03 09:09:06;;;;;;;5.60;2.03;;;13.20;99.90;;;;;;4963004;28;20062;-77
2023/11/03 09:11:38;;;;;;;3.88;1.90;;;13.20;99.90;;;;;;4999470;28;20084;-77
2023/11/03 09:14:08;;;;;;;5.15;1.95;;;13.20;99.90;;;;;;4972029;28;20191;-76
2023/11/03 09:16:38;;;;;;;8.00;2.72;;;13.30;99.90;;;;;;5001983;28;20145;-79
2023/11/03 09:19:09;;;;;;;2.83;1.40;;;13.30;99.90;;;;;;4984780;28;20088;-77
2023/11/03 09:21:39;;;;;;;7.75;4.22;;;13.20;99.90;;;;;;4996338;28;20037;-77
2023/11/03 09:24:10;;;;;;;9.48;4.47;;;13.20;99.90;;;;;;4945827;28;20733;-78
2023/11/03 09:26:39;;;;;;;8.25;3.55;;;13.20;99.90;;;;;;4978415;28;20052;-75
2023/11/03 09:29:07;;;;;;;8.10;2.95;;;13.30;99.90;;;;;;4997901;28;20175;-76
2023/11/03 09:31:36;;;;;;;5.82;2.38;;;13.30;99.90;;;;;;4995743;28;20814;-80
2023/11/03 09:34:05;;;;;;;8.20;2.90;;;13.30;99.90;;;;;;4991267;28;20053;-76
2023/11/03 09:36:33;;;;;;;6.35;2.60;;;13.30;99.90;;;;;;4997351;28;20049;-73
2023/11/03 09:39:04;;;;;;;8.27;3.35;;;13.30;99.90;;;;;;4996455;28;22145;-74
2023/11/03 09:41:38;;;;;;;5.05;2.92;;;13.30;99.90;;;;;;4995700;28;20057;-76
2023/11/03 09:44:06;;;;;;;8.30;3.67;;;13.30;99.90;;;;;;5000545;28;20398;-74
2023/11/03 09:46:37;;;;;;;10.13;4.10;;;13.30;99.90;;;;;;4983263;28;22537;-74
2023/11/03 09:49:06;;;;;;;8.93;3.63;;;13.30;99.90;;;;;;4980761;28;20647;-73
2023/11/03 09:51:36;;;;;;;7.07;3.17;;;13.20;99.90;;;;;;5000675;28;20531;-73
2023/11/03 09:54:07;;;;;;;5.70;2.88;;;13.20;99.90;;;;;;5000087;28;20887;-73
2023/11/03 09:56:37;;;;;;;5.38;2.70;;;13.20;99.90;;;;;;4995339;28;20056;-76
2023/11/03 09:59:07;;;;;;;3.55;2.28;;;13.20;99.90;;;;;;4994120;28;20045;-73
2023/11/03 10:01:37;;;;;;;7.13;2.42;;;13.30;99.90;;;;;;5009500;28;20084;-75
2023/11/03 10:04:07;;;;;;;6.80;3.00;;;13.30;99.90;;;;;;4961742;28;20057;-74
2023/11/03 10:06:37;;;;;;;7.53;3.83;;;13.20;99.90;;;;;;5003039;28;20776;-72
2023/11/03 10:09:06;;;;;;;8.00;3.55;;;13.20;99.90;;;;;;5028625;28;22417;-74
2023/11/03 10:11:37;;;;;;;8.13;3.40;;;13.20;99.90;;;;;;5023473;28;20045;-72
2023/11/03 10:14:05;;;;;;;5.35;3.03;;;13.20;99.90;;;;;;4992395;28;20053;-73
2023/11/03 10:16:35;;;;;;;8.50;4.07;;;13.20;99.90;;;;;;4999498;28;20056;-73
2023/11/03 10:19:04;;;;;;;6.00;3.22;;;13.20;99.90;;;;;;5002961;28;20053;-72
2023/11/03 10:21:32;;;;;;;7.03;3.30;;;13.20;99.90;;;;;;4992283;28;20062;-72
2023/11/03 10:24:00;;;;;;;5.75;2.97;;;13.20;99.90;;;;;;4979743;28;20048;-74
2023/11/03 10:26:30;;;;;;;7.13;2.97;;;13.20;99.90;;;;;;5001126;28;20053;-75
2023/11/03 10:29:04;;;;;;;5.30;2.92;;;13.20;99.90;;;;;;4998312;28;20094;-75
2023/11/03 10:31:34;;;;;;;7.20;2.90;;;13.20;99.90;;;;;;4989970;28;20052;-72
2023/11/03 10:34:04;;;;;;;4.75;2.97;;;13.20;99.90;;;;;;4989191;28;20045;-73
2023/11/03 10:36:34;;;;;;;9.75;3.25;;;13.20;99.90;;;;;;4998763;28;20052;-73
2023/11/03 10:39:03;;;;;;;6.00;3.40;;;13.20;99.90;;;;;;4997366;28;22786;-73
2023/11/03 10:41:33;;;;;;;6.22;3.13;;;13.20;99.90;;;;;;4996915;28;20528;-73
2023/11/03 10:44:06;;;;;;;7.10;3.33;;;13.20;99.90;;;;;;4980644;28;20057;-74
2023/11/03 10:46:39;;;;;;;6.72;3.47;;;13.20;99.90;;;;;;5018007;28;20511;-73
2023/11/03 10:49:15;;;;;;;6.75;3.10;;;13.20;99.90;;;;;;4984133;28;20052;-74
2023/11/03 10:51:52;;;;;;;4.88;2.92;;;13.20;99.90;;;;;;5013208;28;20282;-73
2023/11/03 10:54:29;;;;;;;5.10;2.88;;;13.20;99.90;;;;;;4978689;28;20502;-73
2023/11/03 10:57:01;;;;;;;6.10;3.38;;;13.20;99.90;;;;;;4970183;28;21058;-73
2023/11/03 10:59:34;;;;;;;6.22;2.95;;;13.20;99.90;;;;;;4987261;28;20045;-77
2023/11/03 11:02:11;;;;;;;7.47;2.10;;;13.20;99.90;;;;;;4997704;28;20049;-73
2023/11/03 11:04:49;;;;;;;4.93;2.00;;;13.20;99.90;;;;;;5015888;28;20048;-74
2023/11/03 11:07:21;;;;;;;4.57;2.05;;;13.20;99.90;;;;;;5000014;28;22474;-73
2023/11/03 11:09:49;;;;;;;8.00;4.05;;;13.20;99.90;;;;;;4980754;28;20056;-73
2023/11/03 11:12:18;;;;;;;5.28;3.03;;;13.10;99.90;;;;;;4973976;28;20092;-73
2023/11/03 11:14:49;;;;;;;5.47;2.95;;;13.10;99.90;;;;;;4971683;28;20713;-73
2023/11/03 11:17:34;;;;;;;4.80;1.73;;;13.10;99.90;;;;;;5009939;28;20506;-75
2023/11/03 11:20:04;;;;;;;5.53;2.40;;;13.10;99.90;;;;;;4997945;28;20049;-75
2023/11/03 11:22:35;;;;;;;6.03;2.53;;;13.10;99.90;;;;;;4996871;28;20438;-73
2023/11/03 11:25:07;;;;;;;4.03;2.35;;;13.10;99.90;;;;;;4999693;28;20037;-74
2023/11/03 11:27:38;;;;;;;2.67;1.88;;;13.10;99.90;;;;;;5001228;28;20421;-74
2023/11/03 11:30:14;;;;;;;4.63;2.80;;;13.00;99.90;;;;;;4995539;28;20182;-77
2023/11/03 11:32:50;;;;;;;6.40;5.07;;;13.10;99.90;;;;;;4990411;28;20053;-74
2023/11/03 11:35:20;;;;;;;3.55;2.10;;;13.10;99.90;;;;;;4985813;28;20103;-75
2023/11/03 11:37:49;;;;;;;6.60;5.97;;;13.10;99.90;;;;;;4979393;28;20049;-74
2023/11/03 11:40:18;;;;;;;3.78;2.00;;;13.10;99.90;;;;;;4997667;28;20667;-73
2023/11/03 11:42:48;;;;;;;4.75;3.00;;;13.10;99.90;;;;;;4986612;28;20096;-74
2023/11/03 11:45:18;;;;;;;7.38;6.68;;;13.10;99.90;;;;;;4997591;28;20052;-75
2023/11/03 11:47:48;;;;;;;2.92;1.50;;;13.10;99.90;;;;;;4970756;28;20059;-75
2023/11/03 11:50:21;;;;;;;7.45;6.25;;;13.10;99.90;;;;;;4999308;28;20075;-75
2023/11/03 11:52:50;;;;;;;4.60;3.33;;;13.10;99.90;;;;;;4996868;28;20052;-75
2023/11/03 11:55:19;;;;;;;5.68;2.50;;;13.00;99.90;;;;;;4999084;28;20052;-75
2023/11/03 11:58:02;;;;;;;4.20;1.55;;;13.10;99.90;;;;;;5019044;28;20063;-74
2023/11/03 12:00:38;;;;;;;5.43;1.67;;;13.10;99.90;;;;;;4996393;28;20635;-73
2023/11/03 12:03:08;;;;;;;4.20;1.67;;;13.10;99.90;;;;;;5000159;28;20114;-75
2023/11/03 12:05:37;;;;;;;3.45;1.75;;;13.10;99.90;;;;;;4994581;28;20049;-75
2023/11/03 12:08:07;;;;;;;4.72;3.40;;;13.10;99.90;;;;;;5002368;28;20048;-73
2023/11/03 12:10:35;;;;;;;1.90;0.98;;;13.10;99.90;;;;;;4999056;28;20056;-74
2023/11/03 12:13:04;;;;;;;2.28;1.30;;;13.10;99.90;;;;;;4999197;28;20053;-74
2023/11/03 12:15:34;;;;;;;2.35;1.00;;;13.10;99.90;;;;;;5007572;28;20056;-73
2023/11/03 12:18:05;;;;;;;11.93;4.53;;;13.10;99.90;;;;;;5013180;28;20546;-74
2023/11/03 12:20:33;;;;;;;22.15;8.25;;;13.10;99.90;;;;;;4990666;28;20060;-73
2023/11/03 12:23:02;;;;;;;6.57;2.42;;;13.10;99.90;;;;;;4995038;28;20053;-73
2023/11/03 12:25:31;;;;;;;2.22;1.02;;;13.10;99.90;;;;;;4997046;28;20049;-73
2023/11/03 12:27:59;;;;;;;2.97;1.05;;;13.20;99.90;;;;;;4997821;28;20053;-73
2023/11/03 12:30:28;;;;;;;2.60;0.98;;;13.20;99.90;;;;;;4997898;28;20044;-74
2023/11/03 12:32:59;;;;;;;2.65;0.90;;;13.30;99.90;;;;;;4998171;28;20045;-73
2023/11/03 12:35:32;;;;;;;2.00;0.70;;;13.40;99.90;;;;;;4996707;28;20402;-73
2023/11/03 12:38:00;;;;;;;3.70;3.40;;;13.50;99.90;;;;;;4992619;28;20181;-73
2023/11/03 12:40:29;;;;;;;2.63;1.00;;;13.50;99.90;;;;;;4995687;28;20048;-74
2023/11/03 12:43:10;;;;;;;2.38;1.20;;;13.50;99.90;;;;;;4975489;28;20417;-73
2023/11/03 12:46:06;;;;;;;1.42;0.82;;;13.40;99.90;;;;;;5050036;27;20442;-73
2023/11/03 12:48:34;;;;;;;8.60;7.80;;;13.40;99.90;;;;;;4992285;28;20329;-75
2023/11/03 12:51:03;;;;;;;2.22;0.80;;;13.30;99.90;;;;;;4990194;28;20914;-77
2023/11/03 12:53:32;;;;;;;1.80;0.65;;;13.30;99.90;;;;;;4999080;28;21023;-74
2023/11/03 12:56:03;;;;;;;2.75;0.98;;;13.30;99.90;;;;;;5004862;28;20124;-74
2023/11/03 12:58:32;;;;;;;3.60;1.77;;;13.30;99.90;;;;;;5009516;28;20060;-73